sensor_id;sensor_type;location;lat;lon;timestamp;P1;durP1;ratioP1;P2;durP2;ratioP2
6638;SDS011;3355;52.882;8.430;2023-05-16T00:02:23;3.73;;;1.70;;
6638;SDS011;3355;52.882;8.430;2023-05-16T00:04:51;5.60;;;2.10;;
6638;SDS011;3355;52.882;8.430;2023-05-16T00:07:18;3.47;;;1.30;;
6638;SDS011;3355;52.882;8.430;2023-05-16T00:09:45;1.73;;;1.23;;
6638;SDS011;3355;52.882;8.430;2023-05-16T00:12:11;5.90;;;2.10;;
6638;SDS011;3355;52.882;8.430;2023-05-16T00:14:38;4.03;;;1.47;;
6638;SDS011;3355;52.882;8.430;2023-05-16T00:17:06;3.20;;;1.93;;
6638;SDS011;3355;52.882;8.430;2023-05-16T00:19:35;5.03;;;1.73;;
6638;SDS011;3355;52.882;8.430;2023-05-16T00:22:03;4.87;;;2.43;;
6638;SDS011;3355;52.882;8.430;2023-05-16T00:24:30;5.50;;;1.90;;
6638;SDS011;3355;52.882;8.430;2023-05-16T00:26:58;4.73;;;2.40;;
6638;SDS011;3355;52.882;8.430;2023-05-16T00:29:25;6.03;;;2.03;;
6638;SDS011;3355;52.882;8.430;2023-05-16T00:31:52;4.70;;;1.80;;
6638;SDS011;3355;52.882;8.430;2023-05-16T00:34:21;4.77;;;1.93;;
6638;SDS011;3355;52.882;8.430;2023-05-16T00:36:48;4.50;;;1.60;;
6638;SDS011;3355;52.882;8.430;2023-05-16T00:39:15;4.43;;;2.10;;
6638;SDS011;3355;52.882;8.430;2023-05-16T00:41:42;5.90;;;2.37;;
6638;SDS011;3355;52.882;8.430;2023-05-16T00:44:09;2.30;;;1.70;;
6638;SDS011;3355;52.882;8.430;2023-05-16T00:46:36;7.10;;;1.70;;
6638;SDS011;3355;52.882;8.430;2023-05-16T00:49:03;3.23;;;1.63;;
6638;SDS011;3355;52.882;8.430;2023-05-16T00:51:31;2.00;;;1.23;;
6638;SDS011;3355;52.882;8.430;2023-05-16T00:53:59;4.20;;;2.00;;
6638;SDS011;3355;52.882;8.430;2023-05-16T00:56:25;2.90;;;1.93;;
6638;SDS011;3355;52.882;8.430;2023-05-16T00:58:52;5.43;;;2.20;;
6638;SDS011;3355;52.882;8.430;2023-05-16T01:01:19;6.47;;;2.03;;
6638;SDS011;3355;52.882;8.430;2023-05-16T01:03:49;10.67;;;2.20;;
6638;SDS011;3355;52.882;8.430;2023-05-16T01:06:16;3.73;;;1.37;;
6638;SDS011;3355;52.882;8.430;2023-05-16T01:08:44;3.67;;;1.77;;
6638;SDS011;3355;52.882;8.430;2023-05-16T01:11:11;7.73;;;2.20;;
6638;SDS011;3355;52.882;8.430;2023-05-16T01:13:43;4.00;;;2.07;;
6638;SDS011;3355;52.882;8.430;2023-05-16T01:16:15;9.07;;;2.37;;
6638;SDS011;3355;52.882;8.430;2023-05-16T01:18:47;3.83;;;1.60;;
6638;SDS011;3355;52.882;8.430;2023-05-16T01:21:20;4.50;;;1.80;;
6638;SDS011;3355;52.882;8.430;2023-05-16T01:23:59;7.03;;;2.30;;
6638;SDS011;3355;52.882;8.430;2023-05-16T01:26:31;5.37;;;2.07;;
6638;SDS011;3355;52.882;8.430;2023-05-16T01:28:58;4.60;;;1.70;;
6638;SDS011;3355;52.882;8.430;2023-05-16T01:31:25;4.93;;;1.93;;
6638;SDS011;3355;52.882;8.430;2023-05-16T01:33:52;9.33;;;2.40;;
6638;SDS011;3355;52.882;8.430;2023-05-16T01:36:21;4.87;;;1.90;;
6638;SDS011;3355;52.882;8.430;2023-05-16T01:38:55;7.50;;;2.03;;
6638;SDS011;3355;52.882;8.430;2023-05-16T01:41:28;6.03;;;1.87;;
6638;SDS011;3355;52.882;8.430;2023-05-16T01:44:01;3.03;;;1.43;;
6638;SDS011;3355;52.882;8.430;2023-05-16T01:46:33;6.10;;;1.87;;
6638;SDS011;3355;52.882;8.430;2023-05-16T01:49:04;4.67;;;2.27;;
6638;SDS011;3355;52.882;8.430;2023-05-16T01:51:41;4.57;;;2.23;;
6638;SDS011;3355;52.882;8.430;2023-05-16T01:54:09;7.10;;;2.27;;
6638;SDS011;3355;52.882;8.430;2023-05-16T01:56:39;4.90;;;2.23;;
6638;SDS011;3355;52.882;8.430;2023-05-16T01:59:08;9.70;;;2.13;;
6638;SDS011;3355;52.882;8.430;2023-05-16T02:01:35;10.50;;;2.90;;
6638;SDS011;3355;52.882;8.430;2023-05-16T02:04:02;6.93;;;2.20;;
6638;SDS011;3355;52.882;8.430;2023-05-16T02:06:29;4.10;;;2.10;;
6638;SDS011;3355;52.882;8.430;2023-05-16T02:08:56;6.57;;;2.30;;
6638;SDS011;3355;52.882;8.430;2023-05-16T02:11:24;6.20;;;2.10;;
6638;SDS011;3355;52.882;8.430;2023-05-16T02:13:52;4.67;;;2.53;;
6638;SDS011;3355;52.882;8.430;2023-05-16T02:16:19;5.40;;;2.20;;
6638;SDS011;3355;52.882;8.430;2023-05-16T02:18:46;14.20;;;2.50;;
6638;SDS011;3355;52.882;8.430;2023-05-16T02:21:13;7.20;;;2.37;;
6638;SDS011;3355;52.882;8.430;2023-05-16T02:23:39;5.30;;;2.27;;
6638;SDS011;3355;52.882;8.430;2023-05-16T02:26:06;5.00;;;2.27;;
6638;SDS011;3355;52.882;8.430;2023-05-16T02:28:33;11.83;;;2.87;;
6638;SDS011;3355;52.882;8.430;2023-05-16T02:31:01;11.37;;;2.87;;
6638;SDS011;3355;52.882;8.430;2023-05-16T02:33:28;5.80;;;2.33;;
6638;SDS011;3355;52.882;8.430;2023-05-16T02:35:55;7.20;;;2.30;;
6638;SDS011;3355;52.882;8.430;2023-05-16T02:38:22;6.97;;;2.33;;
6638;SDS011;3355;52.882;8.430;2023-05-16T02:40:49;6.90;;;2.13;;
6638;SDS011;3355;52.882;8.430;2023-05-16T02:43:15;5.40;;;2.40;;
6638;SDS011;3355;52.882;8.430;2023-05-16T02:45:42;9.80;;;2.70;;
6638;SDS011;3355;52.882;8.430;2023-05-16T02:48:11;8.90;;;2.10;;
6638;SDS011;3355;52.882;8.430;2023-05-16T02:50:37;5.67;;;2.70;;
6638;SDS011;3355;52.882;8.430;2023-05-16T02:53:06;7.80;;;2.17;;
6638;SDS011;3355;52.882;8.430;2023-05-16T02:55:33;6.60;;;2.37;;
6638;SDS011;3355;52.882;8.430;2023-05-16T02:58:00;9.07;;;2.77;;
6638;SDS011;3355;52.882;8.430;2023-05-16T03:00:27;5.03;;;2.37;;
6638;SDS011;3355;52.882;8.430;2023-05-16T03:02:53;7.90;;;2.27;;
6638;SDS011;3355;52.882;8.430;2023-05-16T03:05:22;12.10;;;2.43;;
6638;SDS011;3355;52.882;8.430;2023-05-16T03:07:49;8.97;;;2.53;;
6638;SDS011;3355;52.882;8.430;2023-05-16T03:10:16;12.90;;;3.20;;
6638;SDS011;3355;52.882;8.430;2023-05-16T03:12:42;7.90;;;2.20;;
6638;SDS011;3355;52.882;8.430;2023-05-16T03:15:10;11.07;;;2.90;;
6638;SDS011;3355;52.882;8.430;2023-05-16T03:17:36;5.50;;;2.13;;
6638;SDS011;3355;52.882;8.430;2023-05-16T03:20:03;10.53;;;2.83;;
6638;SDS011;3355;52.882;8.430;2023-05-16T03:22:34;7.57;;;1.97;;
6638;SDS011;3355;52.882;8.430;2023-05-16T03:25:01;8.10;;;2.00;;
6638;SDS011;3355;52.882;8.430;2023-05-16T03:27:28;8.93;;;3.07;;
6638;SDS011;3355;52.882;8.430;2023-05-16T03:29:55;4.30;;;2.50;;
6638;SDS011;3355;52.882;8.430;2023-05-16T03:32:21;11.00;;;2.70;;
6638;SDS011;3355;52.882;8.430;2023-05-16T03:34:48;3.60;;;1.60;;
6638;SDS011;3355;52.882;8.430;2023-05-16T03:37:15;7.23;;;2.13;;
6638;SDS011;3355;52.882;8.430;2023-05-16T03:39:43;7.30;;;2.67;;
6638;SDS011;3355;52.882;8.430;2023-05-16T03:42:10;7.73;;;2.23;;
6638;SDS011;3355;52.882;8.430;2023-05-16T03:44:37;13.93;;;1.80;;
6638;SDS011;3355;52.882;8.430;2023-05-16T03:47:06;13.23;;;2.50;;
6638;SDS011;3355;52.882;8.430;2023-05-16T03:49:33;8.23;;;2.20;;
6638;SDS011;3355;52.882;8.430;2023-05-16T03:52:01;5.40;;;1.73;;
6638;SDS011;3355;52.882;8.430;2023-05-16T03:54:28;8.03;;;2.30;;
6638;SDS011;3355;52.882;8.430;2023-05-16T03:56:56;9.10;;;2.23;;
6638;SDS011;3355;52.882;8.430;2023-05-16T03:59:22;7.57;;;2.57;;
6638;SDS011;3355;52.882;8.430;2023-05-16T04:01:49;6.00;;;2.60;;
6638;SDS011;3355;52.882;8.430;2023-05-16T04:04:16;7.57;;;2.90;;
6638;SDS011;3355;52.882;8.430;2023-05-16T04:06:42;4.93;;;2.17;;
6638;SDS011;3355;52.882;8.430;2023-05-16T04:09:09;5.50;;;2.40;;
6638;SDS011;3355;52.882;8.430;2023-05-16T04:11:36;6.70;;;1.80;;
6638;SDS011;3355;52.882;8.430;2023-05-16T04:14:05;6.43;;;2.00;;
6638;SDS011;3355;52.882;8.430;2023-05-16T04:16:31;5.73;;;2.50;;
6638;SDS011;3355;52.882;8.430;2023-05-16T04:18:58;5.63;;;1.90;;
6638;SDS011;3355;52.882;8.430;2023-05-16T04:21:25;9.57;;;1.93;;
6638;SDS011;3355;52.882;8.430;2023-05-16T04:23:51;7.07;;;2.63;;
6638;SDS011;3355;52.882;8.430;2023-05-16T04:26:18;4.57;;;1.90;;
6638;SDS011;3355;52.882;8.430;2023-05-16T04:28:45;5.33;;;1.90;;
6638;SDS011;3355;52.882;8.430;2023-05-16T04:31:13;8.37;;;2.30;;
6638;SDS011;3355;52.882;8.430;2023-05-16T04:33:40;7.47;;;2.60;;
6638;SDS011;3355;52.882;8.430;2023-05-16T04:36:07;7.10;;;2.73;;
6638;SDS011;3355;52.882;8.430;2023-05-16T04:38:34;4.13;;;1.73;;
6638;SDS011;3355;52.882;8.430;2023-05-16T04:41:00;7.13;;;2.30;;
6638;SDS011;3355;52.882;8.430;2023-05-16T04:43:27;7.10;;;2.00;;
6638;SDS011;3355;52.882;8.430;2023-05-16T04:45:54;5.30;;;1.97;;
6638;SDS011;3355;52.882;8.430;2023-05-16T04:48:24;7.47;;;1.90;;
6638;SDS011;3355;52.882;8.430;2023-05-16T04:50:51;9.17;;;2.10;;
6638;SDS011;3355;52.882;8.430;2023-05-16T04:53:17;8.83;;;2.00;;
6638;SDS011;3355;52.882;8.430;2023-05-16T04:55:44;12.17;;;3.17;;
6638;SDS011;3355;52.882;8.430;2023-05-16T04:58:11;7.60;;;2.60;;
6638;SDS011;3355;52.882;8.430;2023-05-16T05:00:38;7.37;;;2.13;;
6638;SDS011;3355;52.882;8.430;2023-05-16T05:03:04;10.30;;;3.43;;
6638;SDS011;3355;52.882;8.430;2023-05-16T05:05:32;7.70;;;2.20;;
6638;SDS011;3355;52.882;8.430;2023-05-16T05:07:59;10.20;;;2.70;;
6638;SDS011;3355;52.882;8.430;2023-05-16T05:10:25;5.63;;;2.70;;
6638;SDS011;3355;52.882;8.430;2023-05-16T05:12:52;15.03;;;2.53;;
6638;SDS011;3355;52.882;8.430;2023-05-16T05:15:19;5.37;;;2.20;;
6638;SDS011;3355;52.882;8.430;2023-05-16T05:17:46;8.20;;;2.90;;
6638;SDS011;3355;52.882;8.430;2023-05-16T05:20:13;4.90;;;1.40;;
6638;SDS011;3355;52.882;8.430;2023-05-16T05:22:40;16.63;;;1.93;;
6638;SDS011;3355;52.882;8.430;2023-05-16T05:25:07;12.47;;;2.10;;
6638;SDS011;3355;52.882;8.430;2023-05-16T05:27:35;5.40;;;2.63;;
6638;SDS011;3355;52.882;8.430;2023-05-16T05:30:02;7.77;;;2.30;;
6638;SDS011;3355;52.882;8.430;2023-05-16T05:32:29;12.97;;;2.57;;
6638;SDS011;3355;52.882;8.430;2023-05-16T05:34:56;6.87;;;1.90;;
6638;SDS011;3355;52.882;8.430;2023-05-16T05:37:23;7.10;;;1.90;;
6638;SDS011;3355;52.882;8.430;2023-05-16T05:39:51;6.40;;;1.70;;
6638;SDS011;3355;52.882;8.430;2023-05-16T05:42:17;5.10;;;2.17;;
6638;SDS011;3355;52.882;8.430;2023-05-16T05:44:44;6.83;;;1.77;;
6638;SDS011;3355;52.882;8.430;2023-05-16T05:47:11;8.17;;;1.87;;
6638;SDS011;3355;52.882;8.430;2023-05-16T05:49:37;5.73;;;2.17;;
6638;SDS011;3355;52.882;8.430;2023-05-16T05:52:04;4.47;;;1.63;;
6638;SDS011;3355;52.882;8.430;2023-05-16T05:54:31;4.10;;;1.67;;
6638;SDS011;3355;52.882;8.430;2023-05-16T05:56:59;5.00;;;1.70;;
6638;SDS011;3355;52.882;8.430;2023-05-16T05:59:26;9.73;;;3.60;;
6638;SDS011;3355;52.882;8.430;2023-05-16T06:01:52;4.70;;;1.67;;
6638;SDS011;3355;52.882;8.430;2023-05-16T06:04:19;5.33;;;1.97;;
6638;SDS011;3355;52.882;8.430;2023-05-16T06:06:46;8.00;;;2.00;;
6638;SDS011;3355;52.882;8.430;2023-05-16T06:09:13;4.83;;;1.30;;
6638;SDS011;3355;52.882;8.430;2023-05-16T06:11:40;6.23;;;1.90;;
6638;SDS011;3355;52.882;8.430;2023-05-16T06:14:08;6.53;;;2.20;;
6638;SDS011;3355;52.882;8.430;2023-05-16T06:16:35;8.60;;;1.63;;
6638;SDS011;3355;52.882;8.430;2023-05-16T06:19:03;5.20;;;1.70;;
6638;SDS011;3355;52.882;8.430;2023-05-16T06:21:31;5.43;;;1.63;;
6638;SDS011;3355;52.882;8.430;2023-05-16T06:23:58;7.00;;;2.87;;
6638;SDS011;3355;52.882;8.430;2023-05-16T06:26:24;5.20;;;1.70;;
6638;SDS011;3355;52.882;8.430;2023-05-16T06:28:51;6.30;;;1.93;;
6638;SDS011;3355;52.882;8.430;2023-05-16T06:31:19;8.07;;;2.33;;
6638;SDS011;3355;52.882;8.430;2023-05-16T06:33:46;5.93;;;2.63;;
6638;SDS011;3355;52.882;8.430;2023-05-16T06:36:13;5.57;;;2.00;;
6638;SDS011;3355;52.882;8.430;2023-05-16T06:38:42;5.27;;;1.60;;
6638;SDS011;3355;52.882;8.430;2023-05-16T06:41:09;8.30;;;1.67;;
6638;SDS011;3355;52.882;8.430;2023-05-16T06:43:41;5.53;;;1.90;;
6638;SDS011;3355;52.882;8.430;2023-05-16T06:46:08;8.60;;;2.30;;
6638;SDS011;3355;52.882;8.430;2023-05-16T06:48:37;6.17;;;2.13;;
6638;SDS011;3355;52.882;8.430;2023-05-16T06:51:04;4.00;;;1.70;;
6638;SDS011;3355;52.882;8.430;2023-05-16T06:53:31;3.90;;;1.40;;
6638;SDS011;3355;52.882;8.430;2023-05-16T06:55:58;3.13;;;1.40;;
6638;SDS011;3355;52.882;8.430;2023-05-16T06:58:25;4.00;;;2.43;;
6638;SDS011;3355;52.882;8.430;2023-05-16T07:00:51;6.00;;;1.60;;
6638;SDS011;3355;52.882;8.430;2023-05-16T07:03:19;4.60;;;1.57;;
6638;SDS011;3355;52.882;8.430;2023-05-16T07:05:47;3.93;;;1.60;;
6638;SDS011;3355;52.882;8.430;2023-05-16T07:08:16;5.43;;;1.57;;
6638;SDS011;3355;52.882;8.430;2023-05-16T07:10:43;6.10;;;1.83;;
6638;SDS011;3355;52.882;8.430;2023-05-16T07:13:10;5.43;;;1.27;;
6638;SDS011;3355;52.882;8.430;2023-05-16T07:15:37;3.10;;;1.13;;
6638;SDS011;3355;52.882;8.430;2023-05-16T07:18:03;9.50;;;1.67;;
6638;SDS011;3355;52.882;8.430;2023-05-16T07:20:30;4.27;;;2.00;;
6638;SDS011;3355;52.882;8.430;2023-05-16T07:22:59;5.00;;;1.13;;
6638;SDS011;3355;52.882;8.430;2023-05-16T07:25:28;4.77;;;1.40;;
6638;SDS011;3355;52.882;8.430;2023-05-16T07:27:55;3.90;;;1.90;;
6638;SDS011;3355;52.882;8.430;2023-05-16T07:30:21;4.83;;;1.50;;
6638;SDS011;3355;52.882;8.430;2023-05-16T07:32:48;3.77;;;2.30;;
6638;SDS011;3355;52.882;8.430;2023-05-16T07:35:15;4.20;;;1.63;;
6638;SDS011;3355;52.882;8.430;2023-05-16T07:37:42;3.53;;;1.50;;
6638;SDS011;3355;52.882;8.430;2023-05-16T07:40:11;6.27;;;1.73;;
6638;SDS011;3355;52.882;8.430;2023-05-16T07:42:39;3.97;;;1.53;;
6638;SDS011;3355;52.882;8.430;2023-05-16T07:45:06;6.70;;;1.70;;
6638;SDS011;3355;52.882;8.430;2023-05-16T07:47:33;4.43;;;1.27;;
6638;SDS011;3355;52.882;8.430;2023-05-16T07:50:00;4.17;;;2.10;;
6638;SDS011;3355;52.882;8.430;2023-05-16T07:52:26;3.83;;;1.30;;
6638;SDS011;3355;52.882;8.430;2023-05-16T07:54:53;4.50;;;1.30;;
6638;SDS011;3355;52.882;8.430;2023-05-16T07:57:22;5.80;;;1.70;;
6638;SDS011;3355;52.882;8.430;2023-05-16T07:59:49;5.13;;;1.20;;
6638;SDS011;3355;52.882;8.430;2023-05-16T08:02:16;2.70;;;1.10;;
6638;SDS011;3355;52.882;8.430;2023-05-16T08:04:43;1.83;;;1.03;;
6638;SDS011;3355;52.882;8.430;2023-05-16T08:07:09;2.37;;;1.17;;
6638;SDS011;3355;52.882;8.430;2023-05-16T08:09:36;3.83;;;1.63;;
6638;SDS011;3355;52.882;8.430;2023-05-16T08:12:03;8.80;;;1.50;;
6638;SDS011;3355;52.882;8.430;2023-05-16T08:14:31;3.90;;;1.77;;
6638;SDS011;3355;52.882;8.430;2023-05-16T08:16:59;5.70;;;1.20;;
6638;SDS011;3355;52.882;8.430;2023-05-16T08:19:25;4.10;;;2.00;;
6638;SDS011;3355;52.882;8.430;2023-05-16T08:21:53;3.93;;;1.00;;
6638;SDS011;3355;52.882;8.430;2023-05-16T08:24:20;5.33;;;1.60;;
6638;SDS011;3355;52.882;8.430;2023-05-16T08:26:47;4.23;;;1.30;;
6638;SDS011;3355;52.882;8.430;2023-05-16T08:29:17;3.10;;;1.40;;
6638;SDS011;3355;52.882;8.430;2023-05-16T08:31:45;5.10;;;1.50;;
6638;SDS011;3355;52.882;8.430;2023-05-16T08:34:11;3.10;;;1.30;;
6638;SDS011;3355;52.882;8.430;2023-05-16T08:36:41;6.60;;;2.07;;
6638;SDS011;3355;52.882;8.430;2023-05-16T08:39:07;3.90;;;1.20;;
6638;SDS011;3355;52.882;8.430;2023-05-16T08:41:35;4.97;;;2.10;;
6638;SDS011;3355;52.882;8.430;2023-05-16T08:44:02;3.53;;;1.43;;
6638;SDS011;3355;52.882;8.430;2023-05-16T08:46:28;2.10;;;1.30;;
6638;SDS011;3355;52.882;8.430;2023-05-16T08:49:01;2.07;;;1.27;;
6638;SDS011;3355;52.882;8.430;2023-05-16T08:51:32;2.60;;;1.40;;
6638;SDS011;3355;52.882;8.430;2023-05-16T08:54:02;2.20;;;1.10;;
6638;SDS011;3355;52.882;8.430;2023-05-16T08:56:29;6.93;;;1.47;;
6638;SDS011;3355;52.882;8.430;2023-05-16T08:58:58;2.80;;;1.60;;
6638;SDS011;3355;52.882;8.430;2023-05-16T09:01:25;4.23;;;1.30;;
6638;SDS011;3355;52.882;8.430;2023-05-16T09:03:52;5.13;;;1.40;;
6638;SDS011;3355;52.882;8.430;2023-05-16T09:06:20;3.87;;;1.70;;
6638;SDS011;3355;52.882;8.430;2023-05-16T09:08:47;6.00;;;1.30;;
6638;SDS011;3355;52.882;8.430;2023-05-16T09:11:14;4.50;;;1.10;;
6638;SDS011;3355;52.882;8.430;2023-05-16T09:13:40;3.97;;;1.43;;
6638;SDS011;3355;52.882;8.430;2023-05-16T09:16:08;3.20;;;1.50;;
6638;SDS011;3355;52.882;8.430;2023-05-16T09:18:35;4.90;;;1.40;;
6638;SDS011;3355;52.882;8.430;2023-05-16T09:21:03;3.00;;;1.30;;
6638;SDS011;3355;52.882;8.430;2023-05-16T09:23:32;7.70;;;1.43;;
6638;SDS011;3355;52.882;8.430;2023-05-16T09:25:59;3.00;;;1.77;;
6638;SDS011;3355;52.882;8.430;2023-05-16T09:28:25;2.60;;;1.20;;
6638;SDS011;3355;52.882;8.430;2023-05-16T09:30:52;5.13;;;1.70;;
6638;SDS011;3355;52.882;8.430;2023-05-16T09:33:23;2.40;;;1.10;;
6638;SDS011;3355;52.882;8.430;2023-05-16T09:35:53;3.80;;;2.03;;
6638;SDS011;3355;52.882;8.430;2023-05-16T09:38:21;2.90;;;1.27;;
6638;SDS011;3355;52.882;8.430;2023-05-16T09:40:49;2.13;;;1.20;;
6638;SDS011;3355;52.882;8.430;2023-05-16T09:43:16;4.27;;;1.17;;
6638;SDS011;3355;52.882;8.430;2023-05-16T09:45:44;2.77;;;1.63;;
6638;SDS011;3355;52.882;8.430;2023-05-16T09:48:11;2.30;;;1.40;;
6638;SDS011;3355;52.882;8.430;2023-05-16T09:50:39;4.63;;;1.10;;
6638;SDS011;3355;52.882;8.430;2023-05-16T09:53:07;6.13;;;1.47;;
6638;SDS011;3355;52.882;8.430;2023-05-16T09:55:34;3.60;;;0.97;;
6638;SDS011;3355;52.882;8.430;2023-05-16T09:58:02;1.57;;;1.10;;
6638;SDS011;3355;52.882;8.430;2023-05-16T10:00:29;4.37;;;1.40;;
6638;SDS011;3355;52.882;8.430;2023-05-16T10:02:57;2.93;;;1.37;;
6638;SDS011;3355;52.882;8.430;2023-05-16T10:05:25;4.90;;;1.30;;
6638;SDS011;3355;52.882;8.430;2023-05-16T10:07:52;4.03;;;1.07;;
6638;SDS011;3355;52.882;8.430;2023-05-16T10:10:21;4.63;;;1.23;;
6638;SDS011;3355;52.882;8.430;2023-05-16T10:12:48;3.13;;;1.30;;
6638;SDS011;3355;52.882;8.430;2023-05-16T10:15:17;3.73;;;1.20;;
6638;SDS011;3355;52.882;8.430;2023-05-16T10:17:47;3.53;;;1.50;;
6638;SDS011;3355;52.882;8.430;2023-05-16T10:20:17;6.50;;;1.90;;
6638;SDS011;3355;52.882;8.430;2023-05-16T10:22:44;5.20;;;1.40;;
6638;SDS011;3355;52.882;8.430;2023-05-16T10:25:14;4.27;;;1.70;;
6638;SDS011;3355;52.882;8.430;2023-05-16T10:27:44;7.17;;;1.67;;
6638;SDS011;3355;52.882;8.430;2023-05-16T10:30:12;2.90;;;1.23;;
6638;SDS011;3355;52.882;8.430;2023-05-16T10:32:42;3.10;;;1.27;;
6638;SDS011;3355;52.882;8.430;2023-05-16T10:35:09;3.73;;;1.13;;
6638;SDS011;3355;52.882;8.430;2023-05-16T10:37:36;2.20;;;1.07;;
6638;SDS011;3355;52.882;8.430;2023-05-16T10:40:03;3.23;;;1.10;;
6638;SDS011;3355;52.882;8.430;2023-05-16T10:42:32;3.00;;;1.03;;
6638;SDS011;3355;52.882;8.430;2023-05-16T10:45:07;3.20;;;1.00;;
6638;SDS011;3355;52.882;8.430;2023-05-16T10:47:34;2.97;;;1.10;;
6638;SDS011;3355;52.882;8.430;2023-05-16T10:50:03;4.90;;;1.40;;
6638;SDS011;3355;52.882;8.430;2023-05-16T10:52:32;1.40;;;0.83;;
6638;SDS011;3355;52.882;8.430;2023-05-16T10:55:01;1.33;;;0.93;;
6638;SDS011;3355;52.882;8.430;2023-05-16T10:57:28;3.50;;;1.00;;
6638;SDS011;3355;52.882;8.430;2023-05-16T10:59:58;2.03;;;1.00;;
6638;SDS011;3355;52.882;8.430;2023-05-16T11:02:26;2.30;;;1.40;;
6638;SDS011;3355;52.882;8.430;2023-05-16T11:04:57;2.73;;;1.40;;
6638;SDS011;3355;52.882;8.430;2023-05-16T11:07:32;3.03;;;1.07;;
6638;SDS011;3355;52.882;8.430;2023-05-16T11:10:01;3.20;;;1.00;;
6638;SDS011;3355;52.882;8.430;2023-05-16T11:12:37;4.00;;;1.20;;
6638;SDS011;3355;52.882;8.430;2023-05-16T11:15:21;2.57;;;1.00;;
6638;SDS011;3355;52.882;8.430;2023-05-16T11:17:49;2.50;;;1.13;;
6638;SDS011;3355;52.882;8.430;2023-05-16T11:20:25;3.70;;;1.47;;
6638;SDS011;3355;52.882;8.430;2023-05-16T11:25:49;2.30;;;0.97;;
6638;SDS011;3355;52.882;8.430;2023-05-16T11:28:18;2.10;;;0.93;;
6638;SDS011;3355;52.882;8.430;2023-05-16T11:30:46;2.80;;;1.10;;
6638;SDS011;3355;52.882;8.430;2023-05-16T11:33:13;1.97;;;0.80;;
6638;SDS011;3355;52.882;8.430;2023-05-16T11:35:40;2.87;;;1.20;;
6638;SDS011;3355;52.882;8.430;2023-05-16T11:38:11;9.07;;;1.30;;
6638;SDS011;3355;52.882;8.430;2023-05-16T11:40:43;2.50;;;0.80;;
6638;SDS011;3355;52.882;8.430;2023-05-16T11:43:10;3.20;;;1.10;;
6638;SDS011;3355;52.882;8.430;2023-05-16T11:45:43;2.77;;;1.10;;
6638;SDS011;3355;52.882;8.430;2023-05-16T11:48:09;4.80;;;1.50;;
6638;SDS011;3355;52.882;8.430;2023-05-16T11:50:36;3.10;;;1.27;;
6638;SDS011;3355;52.882;8.430;2023-05-16T11:53:03;2.90;;;0.80;;
6638;SDS011;3355;52.882;8.430;2023-05-16T11:55:30;3.37;;;1.00;;
6638;SDS011;3355;52.882;8.430;2023-05-16T11:58:00;5.70;;;1.40;;
6638;SDS011;3355;52.882;8.430;2023-05-16T12:00:27;11.87;;;2.27;;
6638;SDS011;3355;52.882;8.430;2023-05-16T12:02:54;2.80;;;1.00;;
6638;SDS011;3355;52.882;8.430;2023-05-16T12:05:26;2.80;;;1.47;;
6638;SDS011;3355;52.882;8.430;2023-05-16T12:07:55;2.50;;;1.33;;
6638;SDS011;3355;52.882;8.430;2023-05-16T12:10:21;3.50;;;1.13;;
6638;SDS011;3355;52.882;8.430;2023-05-16T12:12:49;2.70;;;0.80;;
6638;SDS011;3355;52.882;8.430;2023-05-16T12:15:18;4.60;;;1.20;;
6638;SDS011;3355;52.882;8.430;2023-05-16T12:17:45;15.30;;;1.43;;
6638;SDS011;3355;52.882;8.430;2023-05-16T12:20:12;5.23;;;1.23;;
6638;SDS011;3355;52.882;8.430;2023-05-16T12:22:40;4.87;;;0.83;;
6638;SDS011;3355;52.882;8.430;2023-05-16T12:25:19;2.40;;;0.93;;
6638;SDS011;3355;52.882;8.430;2023-05-16T12:27:47;1.90;;;0.83;;
6638;SDS011;3355;52.882;8.430;2023-05-16T12:30:15;2.13;;;1.10;;
6638;SDS011;3355;52.882;8.430;2023-05-16T12:32:44;1.37;;;0.70;;
6638;SDS011;3355;52.882;8.430;2023-05-16T12:35:11;2.20;;;1.20;;
6638;SDS011;3355;52.882;8.430;2023-05-16T12:37:38;2.27;;;0.80;;
6638;SDS011;3355;52.882;8.430;2023-05-16T12:40:05;3.83;;;1.43;;
6638;SDS011;3355;52.882;8.430;2023-05-16T12:42:35;5.30;;;1.53;;
6638;SDS011;3355;52.882;8.430;2023-05-16T12:45:02;4.70;;;1.00;;
6638;SDS011;3355;52.882;8.430;2023-05-16T12:47:34;3.37;;;1.33;;
6638;SDS011;3355;52.882;8.430;2023-05-16T12:50:02;4.50;;;1.30;;
6638;SDS011;3355;52.882;8.430;2023-05-16T12:52:36;2.30;;;1.00;;
6638;SDS011;3355;52.882;8.430;2023-05-16T12:55:02;1.73;;;0.80;;
6638;SDS011;3355;52.882;8.430;2023-05-16T12:57:30;1.73;;;0.90;;
6638;SDS011;3355;52.882;8.430;2023-05-16T12:59:56;2.03;;;0.80;;
6638;SDS011;3355;52.882;8.430;2023-05-16T13:02:23;3.00;;;1.00;;
6638;SDS011;3355;52.882;8.430;2023-05-16T13:04:51;3.47;;;1.40;;
6638;SDS011;3355;52.882;8.430;2023-05-16T13:07:19;1.70;;;0.90;;
6638;SDS011;3355;52.882;8.430;2023-05-16T13:09:47;2.27;;;1.20;;
6638;SDS011;3355;52.882;8.430;2023-05-16T13:12:14;5.90;;;1.20;;
6638;SDS011;3355;52.882;8.430;2023-05-16T13:14:41;2.40;;;1.23;;
6638;SDS011;3355;52.882;8.430;2023-05-16T13:17:09;6.63;;;1.20;;
6638;SDS011;3355;52.882;8.430;2023-05-16T13:19:36;3.60;;;1.00;;
6638;SDS011;3355;52.882;8.430;2023-05-16T13:22:03;2.23;;;0.90;;
6638;SDS011;3355;52.882;8.430;2023-05-16T13:24:31;3.40;;;1.40;;
6638;SDS011;3355;52.882;8.430;2023-05-16T13:26:58;3.13;;;1.50;;
6638;SDS011;3355;52.882;8.430;2023-05-16T13:29:25;3.03;;;1.10;;
6638;SDS011;3355;52.882;8.430;2023-05-16T13:31:51;2.67;;;1.20;;
6638;SDS011;3355;52.882;8.430;2023-05-16T13:34:18;4.27;;;0.77;;
6638;SDS011;3355;52.882;8.430;2023-05-16T13:36:45;2.67;;;1.20;;
6638;SDS011;3355;52.882;8.430;2023-05-16T13:39:13;6.83;;;1.47;;
6638;SDS011;3355;52.882;8.430;2023-05-16T13:41:41;5.17;;;1.60;;
6638;SDS011;3355;52.882;8.430;2023-05-16T13:44:08;2.70;;;0.90;;
6638;SDS011;3355;52.882;8.430;2023-05-16T13:46:35;2.00;;;1.00;;
6638;SDS011;3355;52.882;8.430;2023-05-16T13:49:02;3.13;;;1.00;;
6638;SDS011;3355;52.882;8.430;2023-05-16T13:51:30;3.53;;;1.40;;
6638;SDS011;3355;52.882;8.430;2023-05-16T13:53:56;2.73;;;1.23;;
6638;SDS011;3355;52.882;8.430;2023-05-16T13:56:23;4.20;;;1.40;;
6638;SDS011;3355;52.882;8.430;2023-05-16T13:58:52;4.10;;;0.80;;
6638;SDS011;3355;52.882;8.430;2023-05-16T14:01:18;4.70;;;1.33;;
6638;SDS011;3355;52.882;8.430;2023-05-16T14:03:45;3.60;;;1.20;;
6638;SDS011;3355;52.882;8.430;2023-05-16T14:06:12;4.27;;;1.10;;
6638;SDS011;3355;52.882;8.430;2023-05-16T14:08:39;2.83;;;1.03;;
6638;SDS011;3355;52.882;8.430;2023-05-16T14:11:05;3.87;;;1.90;;
6638;SDS011;3355;52.882;8.430;2023-05-16T14:13:32;2.90;;;1.30;;
6638;SDS011;3355;52.882;8.430;2023-05-16T14:16:00;2.37;;;1.00;;
6638;SDS011;3355;52.882;8.430;2023-05-16T14:18:27;4.60;;;1.03;;
6638;SDS011;3355;52.882;8.430;2023-05-16T14:20:54;1.80;;;0.97;;
6638;SDS011;3355;52.882;8.430;2023-05-16T14:23:20;2.20;;;1.13;;
6638;SDS011;3355;52.882;8.430;2023-05-16T14:25:47;4.23;;;1.57;;
6638;SDS011;3355;52.882;8.430;2023-05-16T14:28:15;4.73;;;1.50;;
6638;SDS011;3355;52.882;8.430;2023-05-16T14:30:42;2.50;;;1.70;;
6638;SDS011;3355;52.882;8.430;2023-05-16T14:33:10;2.83;;;1.50;;
6638;SDS011;3355;52.882;8.430;2023-05-16T14:35:36;3.00;;;1.50;;
6638;SDS011;3355;52.882;8.430;2023-05-16T14:38:03;3.90;;;1.87;;
6638;SDS011;3355;52.882;8.430;2023-05-16T14:40:31;4.30;;;1.87;;
6638;SDS011;3355;52.882;8.430;2023-05-16T14:42:58;2.53;;;1.60;;
6638;SDS011;3355;52.882;8.430;2023-05-16T14:45:28;2.93;;;1.63;;
6638;SDS011;3355;52.882;8.430;2023-05-16T14:47:55;5.03;;;1.73;;
6638;SDS011;3355;52.882;8.430;2023-05-16T14:50:23;4.93;;;1.60;;
6638;SDS011;3355;52.882;8.430;2023-05-16T14:52:50;9.63;;;4.10;;
6638;SDS011;3355;52.882;8.430;2023-05-16T14:55:17;5.07;;;2.23;;
6638;SDS011;3355;52.882;8.430;2023-05-16T14:57:44;3.10;;;1.30;;
6638;SDS011;3355;52.882;8.430;2023-05-16T15:00:13;4.57;;;2.27;;
6638;SDS011;3355;52.882;8.430;2023-05-16T15:02:41;5.00;;;1.90;;
6638;SDS011;3355;52.882;8.430;2023-05-16T15:05:08;3.80;;;2.13;;
6638;SDS011;3355;52.882;8.430;2023-05-16T15:07:36;4.20;;;1.90;;
6638;SDS011;3355;52.882;8.430;2023-05-16T15:10:03;4.67;;;1.57;;
6638;SDS011;3355;52.882;8.430;2023-05-16T15:12:30;3.93;;;2.13;;
6638;SDS011;3355;52.882;8.430;2023-05-16T15:14:57;5.80;;;1.80;;
6638;SDS011;3355;52.882;8.430;2023-05-16T15:17:24;3.50;;;1.63;;
6638;SDS011;3355;52.882;8.430;2023-05-16T15:19:51;5.40;;;2.00;;
6638;SDS011;3355;52.882;8.430;2023-05-16T15:22:18;9.37;;;2.40;;